createdAt,value
2019-04-01T00:00:53.066Z,32.10
2019-04-01T00:03:19.236Z,31.90
2019-04-01T00:05:46.155Z,32.20
2019-04-01T00:08:12.316Z,32.20
2019-04-01T00:10:38.499Z,31.70
2019-04-01T00:13:04.652Z,31.80
2019-04-01T00:15:30.797Z,32.20
2019-04-01T00:17:56.948Z,32.00
2019-04-01T00:20:23.102Z,32.00
2019-04-01T00:22:49.289Z,32.20
2019-04-01T00:25:15.448Z,31.90
2019-04-01T00:27:41.609Z,31.50
2019-04-01T00:30:07.964Z,31.40
2019-04-01T00:32:34.108Z,31.80
2019-04-01T00:35:00.343Z,31.80
2019-04-01T00:37:26.451Z,31.60
2019-04-01T00:39:52.600Z,31.70
2019-04-01T00:42:18.757Z,31.80
2019-04-01T00:44:44.944Z,31.90
2019-04-01T00:47:11.089Z,31.90
2019-04-01T00:49:37.255Z,31.70
2019-04-01T00:52:03.396Z,31.70
2019-04-01T00:54:29.575Z,31.40
2019-04-01T00:56:55.723Z,31.40
2019-04-01T00:59:21.892Z,31.80
2019-04-01T01:01:48.049Z,31.60
2019-04-01T01:04:14.226Z,31.40
2019-04-01T01:06:40.385Z,31.40
2019-04-01T01:09:06.535Z,31.30
2019-04-01T01:11:32.686Z,31.40
2019-04-01T01:13:58.844Z,31.30
2019-04-01T01:16:24.993Z,31.20
2019-04-01T01:18:51.152Z,31.60
2019-04-01T01:21:17.533Z,31.20
2019-04-01T01:23:43.691Z,31.20
2019-04-01T01:26:09.857Z,31.60
2019-04-01T01:28:36.002Z,31.20
2019-04-01T01:31:02.153Z,32.00
2019-04-01T01:33:28.308Z,31.40
2019-04-01T01:35:54.466Z,31.10
2019-04-01T01:38:20.635Z,31.30
2019-04-01T01:40:46.779Z,30.90
2019-04-01T01:43:12.929Z,31.10
2019-04-01T01:45:39.094Z,31.00
2019-04-01T01:48:05.236Z,31.00
2019-04-01T01:50:31.405Z,31.20
2019-04-01T01:52:57.889Z,31.10
2019-04-01T01:55:24.065Z,31.00
2019-04-01T01:57:50.220Z,31.00
2019-04-01T02:00:16.390Z,30.90
2019-04-01T02:02:42.537Z,31.30
2019-04-01T02:05:08.715Z,31.30
2019-04-01T02:07:34.936Z,31.00
2019-04-01T02:10:01.064Z,31.00
2019-04-01T02:12:27.217Z,31.20
2019-04-01T02:14:53.393Z,30.90
2019-04-01T02:17:19.547Z,30.80
2019-04-01T02:19:45.791Z,30.80
2019-04-01T02:22:11.914Z,30.50
2019-04-01T02:24:38.076Z,30.50
2019-04-01T02:27:04.225Z,31.40
2019-04-01T02:29:31.148Z,30.70
2019-04-01T02:31:57.297Z,30.60
2019-04-01T02:34:23.444Z,30.70
2019-04-01T02:36:49.597Z,30.50
2019-04-01T02:39:15.753Z,30.60
2019-04-01T02:41:41.901Z,30.60
2019-04-01T02:44:08.054Z,30.90
2019-04-01T02:46:34.209Z,31.00
2019-04-01T02:49:00.361Z,30.80
2019-04-01T02:51:26.519Z,30.90
2019-04-01T02:53:52.680Z,30.80
2019-04-01T02:56:18.830Z,30.70
2019-04-01T02:58:44.991Z,30.60
2019-04-01T03:01:11.145Z,30.80
2019-04-01T03:03:37.294Z,30.40
2019-04-01T03:06:03.447Z,30.40
2019-04-01T03:08:29.591Z,30.60
2019-04-01T03:10:55.771Z,30.70
2019-04-01T03:13:21.918Z,30.50
2019-04-01T03:15:48.087Z,30.50
2019-04-01T03:18:14.234Z,30.50
2019-04-01T03:20:40.409Z,30.40
2019-04-01T03:23:06.566Z,30.50
2019-04-01T03:25:32.751Z,30.60
2019-04-01T03:27:59.061Z,30.30
2019-04-01T03:30:25.231Z,30.40
2019-04-01T03:32:51.403Z,30.60
2019-04-01T03:35:17.569Z,30.50
2019-04-01T03:37:43.895Z,30.30
2019-04-01T03:40:10.063Z,30.40
2019-04-01T03:42:36.240Z,30.50
2019-04-01T03:45:02.399Z,30.30
2019-04-01T03:47:28.738Z,30.40
2019-04-01T03:49:54.891Z,30.60
2019-04-01T03:52:21.052Z,30.50
2019-04-01T03:54:47.202Z,30.50
2019-04-01T03:57:13.480Z,30.40
2019-04-01T03:59:39.638Z,30.40
2019-04-01T04:02:05.930Z,30.50
2019-04-01T04:04:31.985Z,30.30
2019-04-01T04:06:58.144Z,30.40
2019-04-01T04:09:24.314Z,30.60
2019-04-01T04:11:51.243Z,30.40
2019-04-01T04:14:17.396Z,30.40
2019-04-01T04:16:43.548Z,30.40
2019-04-01T04:19:09.704Z,30.30
2019-04-01T04:21:35.855Z,30.50
2019-04-01T04:24:02.031Z,30.60
2019-04-01T04:26:28.344Z,30.60
2019-04-01T04:28:54.505Z,30.50
2019-04-01T04:31:20.659Z,30.30
2019-04-01T04:33:46.815Z,30.50
2019-04-01T04:36:12.978Z,30.40
2019-04-01T04:38:39.124Z,30.40
2019-04-01T04:41:05.298Z,30.60
2019-04-01T04:43:31.448Z,30.40
2019-04-01T04:45:57.617Z,30.30
2019-04-01T04:48:23.767Z,30.40
2019-04-01T04:50:49.917Z,30.30
2019-04-01T04:53:22.224Z,30.40
2019-04-01T04:55:48.372Z,30.40
2019-04-01T04:58:14.518Z,30.50
2019-04-01T05:00:40.668Z,30.40
2019-04-01T05:03:07.589Z,30.40
2019-04-01T05:05:33.740Z,30.40
2019-04-01T05:07:59.885Z,30.60
2019-04-01T05:10:26.036Z,30.40
2019-04-01T05:12:52.203Z,30.50
2019-04-01T05:15:18.345Z,30.40
2019-04-01T05:17:44.496Z,30.60
2019-04-01T05:20:10.649Z,30.20
2019-04-01T05:22:36.803Z,30.20
2019-04-01T05:25:02.958Z,30.50
2019-04-01T05:27:29.898Z,30.30
2019-04-01T05:29:56.056Z,30.60
2019-04-01T05:32:22.217Z,30.30
2019-04-01T05:34:48.372Z,30.30
2019-04-01T05:37:14.546Z,30.20
2019-04-01T05:39:40.689Z,30.50
2019-04-01T05:42:06.875Z,30.30
2019-04-01T05:44:33.021Z,30.40
2019-04-01T05:46:59.190Z,30.40
2019-04-01T05:49:25.342Z,30.40
2019-04-01T05:51:51.523Z,30.40
2019-04-01T05:54:17.680Z,30.70
2019-04-01T05:56:44.608Z,30.30
2019-04-01T05:59:10.756Z,30.30
2019-04-01T06:01:36.908Z,30.40
2019-04-01T06:04:03.061Z,30.10
2019-04-01T06:06:29.212Z,30.00
2019-04-01T06:08:55.363Z,30.00
2019-04-01T06:11:21.519Z,30.30
2019-04-01T06:13:47.666Z,30.10
2019-04-01T06:16:13.815Z,30.00
2019-04-01T06:18:39.971Z,30.20
2019-04-01T06:21:06.890Z,30.00
2019-04-01T06:23:33.042Z,30.00
2019-04-01T06:25:59.193Z,30.10
2019-04-01T06:28:25.354Z,30.20
2019-04-01T06:30:51.514Z,30.20
2019-04-01T06:33:18.424Z,30.40
2019-04-01T06:35:44.581Z,30.90
2019-04-01T06:38:10.726Z,30.20
2019-04-01T06:40:36.880Z,30.30
2019-04-01T06:43:03.029Z,30.10
2019-04-01T06:45:29.187Z,30.20
2019-04-01T06:47:55.353Z,30.60
2019-04-01T06:50:21.507Z,30.30
2019-04-01T06:52:47.679Z,30.00
2019-04-01T06:55:13.838Z,30.10
2019-04-01T06:57:40.012Z,30.00
2019-04-01T07:00:06.926Z,30.00
2019-04-01T07:02:33.097Z,30.00
2019-04-01T07:04:59.250Z,30.00
2019-04-01T07:07:25.421Z,30.20
2019-04-01T07:09:51.668Z,30.00
2019-04-01T07:12:17.766Z,30.00
2019-04-01T07:14:43.919Z,30.00
2019-04-01T07:17:10.073Z,29.90
2019-04-01T07:19:36.225Z,29.90
2019-04-01T07:22:02.451Z,29.90
2019-04-01T07:24:28.581Z,30.00
2019-04-01T07:26:54.724Z,30.00
2019-04-01T07:29:20.872Z,30.00
2019-04-01T07:31:47.026Z,30.00
2019-04-01T07:34:13.173Z,30.10
2019-04-01T07:36:39.335Z,30.10
2019-04-01T07:39:05.493Z,30.20
2019-04-01T07:41:31.641Z,29.90
2019-04-01T07:43:57.784Z,30.00
2019-04-01T07:46:23.939Z,30.00
2019-04-01T07:48:50.101Z,30.00
2019-04-01T07:51:16.264Z,30.00
2019-04-01T07:53:42.574Z,30.00
2019-04-01T07:56:08.728Z,30.00
2019-04-01T07:58:34.896Z,30.00
2019-04-01T08:01:01.808Z,30.00
2019-04-01T08:03:28.063Z,30.00
2019-04-01T08:05:54.168Z,30.20
2019-04-01T08:08:20.343Z,30.30
2019-04-01T08:10:46.665Z,30.30
2019-04-01T08:13:12.837Z,30.30
2019-04-01T08:15:38.988Z,30.20
2019-04-01T08:18:05.164Z,30.10
2019-04-01T08:20:31.333Z,30.30
2019-04-01T08:22:57.481Z,30.10
2019-04-01T08:25:23.643Z,30.20
2019-04-01T08:27:49.794Z,30.20
2019-04-01T08:30:15.941Z,30.20
2019-04-01T08:32:42.090Z,30.30
2019-04-01T08:35:09.009Z,30.30
2019-04-01T08:37:35.175Z,30.40
2019-04-01T08:40:01.343Z,30.00
2019-04-01T08:42:27.510Z,30.30
2019-04-01T08:44:53.657Z,30.40
2019-04-01T08:47:19.809Z,30.30
2019-04-01T08:49:46.317Z,30.20
2019-04-01T08:52:12.469Z,30.20
2019-04-01T08:54:39.408Z,30.20
2019-04-01T08:57:05.618Z,30.20
2019-04-01T08:59:31.764Z,30.40
2019-04-01T09:01:57.918Z,30.40
2019-04-01T09:04:24.071Z,30.10
2019-04-01T09:06:50.221Z,30.00
2019-04-01T09:09:16.370Z,30.20
2019-04-01T09:11:42.537Z,30.10
2019-04-01T09:14:09.481Z,30.40
2019-04-01T09:16:35.638Z,30.40
2019-04-01T09:19:01.805Z,30.30
2019-04-01T09:21:28.722Z,30.60
2019-04-01T09:23:54.899Z,30.60
2019-04-01T09:26:21.827Z,30.50
2019-04-01T09:28:48.000Z,30.40
2019-04-01T09:31:14.160Z,30.60
2019-04-01T09:33:40.312Z,30.50
2019-04-01T09:36:06.466Z,30.60
2019-04-01T09:38:32.621Z,30.50
2019-04-01T09:40:58.785Z,30.60
2019-04-01T09:43:24.955Z,30.60
2019-04-01T09:45:51.108Z,30.70
2019-04-01T09:48:17.264Z,30.60
2019-04-01T09:50:43.409Z,30.60
2019-04-01T09:53:09.561Z,30.70
2019-04-01T09:55:35.710Z,30.60
2019-04-01T09:58:01.864Z,30.60
2019-04-01T10:00:28.008Z,30.80
2019-04-01T10:02:54.158Z,30.80
2019-04-01T10:05:20.302Z,30.50
2019-04-01T10:07:46.541Z,30.70
2019-04-01T10:10:12.656Z,30.90
2019-04-01T10:12:38.814Z,30.80
2019-04-01T10:15:04.980Z,30.80
2019-04-01T10:17:31.129Z,30.60
2019-04-01T10:20:00.636Z,30.80
2019-04-01T10:22:23.476Z,31.00
2019-04-01T10:24:49.624Z,30.90
2019-04-01T10:27:15.784Z,30.80
2019-04-01T10:29:41.954Z,30.80
2019-04-01T10:32:08.865Z,30.80
2019-04-01T10:34:35.036Z,30.80
2019-04-01T10:37:01.194Z,30.80
2019-04-01T10:39:27.361Z,30.90
2019-04-01T10:41:53.511Z,30.90
2019-04-01T10:44:19.684Z,30.90
2019-04-01T10:46:45.880Z,31.00
2019-04-01T10:49:12.085Z,30.90
2019-04-01T10:51:38.296Z,30.90
2019-04-01T10:54:05.271Z,30.90
2019-04-01T10:56:31.381Z,30.90
2019-04-01T10:58:57.620Z,31.10
2019-04-01T11:01:23.836Z,31.10
2019-04-01T11:03:50.019Z,31.00
2019-04-01T11:06:16.174Z,31.20
2019-04-01T11:08:42.325Z,31.20
2019-04-01T11:11:08.481Z,31.20
2019-04-01T11:13:34.630Z,31.20
2019-04-01T11:16:00.780Z,31.20
2019-04-01T11:18:26.942Z,31.90
2019-04-01T11:20:56.622Z,31.20
2019-04-01T11:23:19.285Z,31.30
2019-04-01T11:25:45.436Z,31.30
2019-04-01T11:28:11.597Z,31.40
2019-04-01T11:30:37.794Z,31.30
2019-04-01T11:33:07.575Z,31.40
2019-04-01T11:35:30.157Z,31.50
2019-04-01T11:37:56.295Z,31.50
2019-04-01T11:40:22.455Z,31.40
2019-04-01T11:42:48.806Z,31.50
2019-04-01T11:45:14.955Z,31.50
2019-04-01T11:47:41.120Z,31.50
2019-04-01T11:50:07.313Z,31.60
2019-04-01T11:52:33.555Z,31.60
2019-04-01T11:54:59.669Z,31.80
2019-04-01T11:57:25.825Z,31.70
2019-04-01T11:59:51.976Z,31.70
2019-04-01T12:02:18.120Z,31.70
2019-04-01T12:04:44.265Z,31.70
2019-04-01T12:07:10.424Z,31.70
2019-04-01T12:09:36.586Z,31.70
2019-04-01T12:12:03.453Z,31.80
2019-04-01T12:14:29.004Z,31.80
2019-04-01T12:16:55.155Z,31.90
2019-04-01T12:19:21.308Z,31.80
2019-04-01T12:21:47.462Z,31.90
2019-04-01T12:24:13.650Z,31.90
2019-04-01T12:26:39.797Z,31.90
2019-04-01T12:29:05.945Z,32.00
2019-04-01T12:31:32.103Z,32.10
2019-04-01T12:33:58.257Z,32.10
2019-04-01T12:36:24.404Z,32.10
2019-04-01T12:38:53.520Z,32.10
2019-04-01T12:41:16.765Z,32.10
2019-04-01T12:43:42.915Z,32.20
2019-04-01T12:46:09.607Z,32.20
2019-04-01T12:48:35.252Z,32.10
2019-04-01T12:51:01.403Z,32.20
2019-04-01T12:53:28.325Z,32.30
2019-04-01T12:55:54.476Z,32.30
2019-04-01T12:58:20.803Z,32.20
2019-04-01T13:00:46.823Z,32.30
2019-04-01T13:03:12.986Z,32.40
2019-04-01T13:05:39.153Z,32.40
2019-04-01T13:08:05.309Z,32.40
2019-04-01T13:10:31.461Z,32.40
2019-04-01T13:12:57.609Z,32.40
2019-04-01T13:15:23.761Z,32.40
2019-04-01T13:17:50.079Z,32.50
2019-04-01T13:20:16.107Z,32.40
2019-04-01T13:22:42.257Z,32.50
2019-04-01T13:25:08.405Z,32.40
2019-04-01T13:27:34.565Z,32.50
2019-04-01T13:30:00.872Z,32.60
2019-04-01T13:32:27.020Z,32.60
2019-04-01T13:34:53.173Z,32.80
2019-04-01T13:37:19.322Z,32.70
2019-04-01T13:39:46.360Z,33.40
2019-04-01T13:42:11.668Z,32.70
2019-04-01T13:44:37.966Z,32.80
2019-04-01T13:47:04.046Z,32.70
2019-04-01T13:49:30.197Z,32.80
2019-04-01T13:51:56.347Z,32.80
2019-04-01T13:54:22.495Z,32.80
2019-04-01T13:56:48.642Z,32.80
2019-04-01T13:59:17.403Z,32.80
2019-04-01T14:01:40.990Z,32.90
2019-04-01T14:04:07.137Z,32.90
2019-04-01T14:06:33.285Z,32.90
2019-04-01T14:09:00.651Z,32.90
2019-04-01T14:11:25.624Z,33.00
2019-04-01T14:13:51.806Z,33.00
2019-04-01T14:16:18.879Z,33.70
2019-04-01T14:18:45.033Z,33.00
2019-04-01T14:21:17.452Z,33.00
2019-04-01T14:23:37.382Z,33.10
2019-04-01T14:26:03.526Z,33.10
2019-04-01T14:28:29.684Z,33.10
2019-04-01T14:30:55.832Z,33.10
2019-04-01T14:33:22.014Z,33.10
2019-04-01T14:35:48.170Z,33.20
2019-04-01T14:38:14.321Z,33.20
2019-04-01T14:40:40.481Z,33.20
2019-04-01T14:43:06.629Z,33.20
2019-04-01T14:45:32.781Z,33.30
2019-04-01T14:47:58.934Z,33.30
2019-04-01T14:50:25.088Z,33.30
2019-04-01T14:52:51.240Z,33.30
2019-04-01T14:55:17.397Z,33.30
2019-04-01T14:57:43.751Z,33.40
2019-04-01T15:00:09.904Z,33.50
2019-04-01T15:02:36.045Z,33.50
2019-04-01T15:05:04.861Z,33.50
2019-04-01T15:07:28.421Z,33.60
2019-04-01T15:09:54.580Z,33.60
2019-04-01T15:12:20.748Z,33.60
2019-04-01T15:14:46.901Z,33.60
2019-04-01T15:17:13.070Z,33.60
2019-04-01T15:19:39.984Z,33.60
2019-04-01T15:22:06.159Z,33.60
2019-04-01T15:24:32.332Z,33.70
2019-04-01T15:26:58.494Z,33.70
2019-04-01T15:29:24.648Z,33.70
2019-04-01T15:31:50.802Z,33.70
2019-04-01T15:34:16.958Z,33.70
2019-04-01T15:36:43.519Z,33.70
2019-04-01T15:39:09.676Z,33.70
2019-04-01T15:41:35.833Z,33.70
2019-04-01T15:44:01.980Z,33.80
2019-04-01T15:46:28.898Z,33.80
2019-04-01T15:48:55.053Z,33.80
2019-04-01T15:51:21.209Z,33.80
2019-04-01T15:53:47.365Z,33.80
2019-04-01T15:56:13.520Z,33.90
2019-04-01T15:58:39.661Z,33.90
2019-04-01T16:01:05.808Z,33.90
2019-04-01T16:03:31.964Z,33.90
2019-04-01T16:05:58.129Z,34.00
2019-04-01T16:08:24.340Z,34.00
2019-04-01T16:10:50.679Z,34.00
2019-04-01T16:13:16.707Z,34.10
2019-04-01T16:15:42.877Z,34.00
2019-04-01T16:18:09.021Z,34.00
2019-04-01T16:20:35.209Z,34.10
2019-04-01T16:23:01.357Z,34.10
2019-04-01T16:25:27.520Z,34.10
2019-04-01T16:27:53.669Z,34.10
2019-04-01T16:30:19.823Z,34.20
2019-04-01T16:32:45.972Z,34.20
2019-04-01T16:35:12.145Z,34.20
2019-04-01T16:37:38.290Z,34.30
2019-04-01T16:40:05.922Z,34.30
2019-04-01T16:42:30.685Z,34.30
2019-04-01T16:44:56.839Z,34.30
2019-04-01T16:47:22.996Z,34.30
2019-04-01T16:49:49.137Z,34.30
2019-04-01T16:52:15.676Z,34.30
2019-04-01T16:54:41.621Z,34.30
2019-04-01T16:57:07.781Z,34.30
2019-04-01T16:59:33.948Z,34.40
2019-04-01T17:02:00.106Z,34.40
2019-04-01T17:04:26.276Z,34.40
2019-04-01T17:06:53.193Z,34.30
2019-04-01T17:09:19.365Z,34.30
2019-04-01T17:11:45.524Z,34.40
2019-04-01T17:14:11.698Z,34.30
2019-04-01T17:16:37.849Z,34.30
2019-04-01T17:19:04.022Z,34.40
2019-04-01T17:21:30.958Z,34.30
2019-04-01T17:23:57.122Z,34.30
2019-04-01T17:26:24.436Z,34.40
2019-04-01T17:28:50.607Z,34.40
2019-04-01T17:31:16.759Z,34.40
2019-04-01T17:33:42.932Z,34.40
2019-04-01T17:36:09.089Z,34.40
2019-04-01T17:38:36.126Z,34.40
2019-04-01T17:41:01.446Z,34.40
2019-04-01T17:43:27.618Z,34.40
2019-04-01T17:45:53.769Z,34.40
2019-04-01T17:48:20.707Z,34.40
2019-04-01T17:50:46.859Z,34.40
2019-04-01T17:53:13.019Z,34.40
2019-04-01T17:55:39.164Z,34.40
2019-04-01T17:58:05.336Z,34.40
2019-04-01T18:00:31.659Z,34.40
2019-04-01T18:02:57.808Z,34.30
2019-04-01T18:05:23.992Z,34.40
2019-04-01T18:07:50.899Z,34.30
2019-04-01T18:10:17.068Z,34.40
2019-04-01T18:12:43.224Z,34.30
2019-04-01T18:15:09.411Z,34.30
2019-04-01T18:17:35.570Z,34.30
2019-04-01T18:20:01.742Z,34.30
2019-04-01T18:22:29.118Z,34.30
2019-04-01T18:24:54.862Z,34.30
2019-04-01T18:27:21.013Z,34.30
2019-04-01T18:29:47.188Z,34.30
2019-04-01T18:32:13.342Z,34.30
2019-04-01T18:34:39.515Z,34.30
2019-04-01T18:37:06.432Z,34.30
2019-04-01T18:39:32.601Z,34.30
2019-04-01T18:41:58.753Z,34.20
2019-04-01T18:44:25.473Z,34.30
2019-04-01T18:46:51.096Z,34.30
2019-04-01T18:49:17.345Z,34.20
2019-04-01T18:51:43.469Z,34.30
2019-04-01T18:54:09.632Z,34.30
2019-04-01T18:56:35.794Z,34.30
2019-04-01T18:59:01.964Z,34.30
2019-04-01T19:01:28.125Z,34.30
2019-04-01T19:03:54.275Z,34.30
2019-04-01T19:06:20.429Z,34.20
2019-04-01T19:08:46.579Z,34.20
2019-04-01T19:11:12.737Z,34.30
2019-04-01T19:13:38.889Z,34.30
2019-04-01T19:16:06.371Z,34.30
2019-04-01T19:18:31.227Z,34.30
2019-04-01T19:21:02.985Z,34.30
2019-04-01T19:23:24.329Z,34.30
2019-04-01T19:25:50.501Z,34.70
2019-04-01T19:28:18.225Z,34.30
2019-04-01T19:30:43.341Z,34.30
2019-04-01T19:33:09.123Z,34.30
2019-04-01T19:35:35.265Z,34.20
2019-04-01T19:38:01.411Z,34.40
2019-04-01T19:40:28.343Z,34.30
2019-04-01T19:42:54.500Z,34.30
2019-04-01T19:45:20.677Z,34.30
2019-04-01T19:47:46.838Z,35.00
2019-04-01T19:50:13.014Z,34.30
2019-04-01T19:52:39.175Z,34.30
2019-04-01T19:55:06.101Z,34.30
2019-04-01T19:57:32.249Z,34.30
2019-04-01T19:59:58.412Z,34.30
2019-04-01T20:02:24.562Z,34.20
2019-04-01T20:04:51.341Z,34.20
2019-04-01T20:07:16.925Z,34.10
2019-04-01T20:09:46.070Z,34.20
2019-04-01T20:12:09.281Z,34.00
2019-04-01T20:14:35.436Z,34.10
2019-04-01T20:17:03.359Z,34.20
2019-04-01T20:19:29.540Z,34.20
2019-04-01T20:21:56.271Z,34.10
2019-04-01T20:24:21.889Z,34.10
2019-04-01T20:26:48.041Z,34.00
2019-04-01T20:29:16.908Z,34.00
2019-04-01T20:31:43.061Z,34.00
2019-04-01T20:34:19.054Z,34.10
2019-04-01T20:36:35.410Z,34.00
2019-04-01T20:39:01.569Z,34.00
2019-04-01T20:41:27.738Z,34.20
2019-04-01T20:43:53.889Z,34.20
2019-04-01T20:46:20.036Z,34.10
2019-04-01T20:48:46.192Z,34.00
2019-04-01T20:51:12.340Z,34.10
2019-04-01T20:53:38.501Z,34.00
2019-04-01T20:56:04.657Z,34.00
2019-04-01T20:58:30.813Z,33.90
2019-04-01T21:00:57.030Z,34.00
2019-04-01T21:03:23.186Z,34.00
2019-04-01T21:05:49.345Z,34.00
2019-04-01T21:08:16.391Z,33.90
2019-04-01T21:10:42.313Z,33.90
2019-04-01T21:13:07.878Z,33.90
2019-04-01T21:15:34.029Z,33.80
2019-04-01T21:18:00.204Z,33.80
2019-04-01T21:20:26.356Z,34.60
2019-04-01T21:22:52.515Z,33.90
2019-04-01T21:25:18.663Z,34.00
2019-04-01T21:27:44.828Z,33.90
2019-04-01T21:30:10.976Z,33.90
2019-04-01T21:32:37.148Z,34.00
2019-04-01T21:35:03.305Z,33.90
2019-04-01T21:37:29.477Z,33.90
2019-04-01T21:39:55.626Z,34.00
2019-04-01T21:42:22.128Z,33.90
2019-04-01T21:44:48.003Z,34.00
2019-04-01T21:47:14.173Z,33.90
2019-04-01T21:49:40.329Z,33.90
2019-04-01T21:52:06.476Z,33.80
2019-04-01T21:54:32.633Z,34.00
2019-04-01T21:56:58.784Z,33.80
2019-04-01T21:59:24.933Z,34.00
2019-04-01T22:01:51.102Z,33.90
2019-04-01T22:04:17.263Z,33.90
2019-04-01T22:06:43.409Z,34.00
2019-04-01T22:09:09.571Z,34.00
2019-04-01T22:11:36.497Z,34.00
2019-04-01T22:14:02.645Z,34.00
2019-04-01T22:16:28.793Z,34.00
2019-04-01T22:18:54.954Z,33.90
2019-04-01T22:21:21.104Z,33.90
2019-04-01T22:23:47.253Z,34.00
2019-04-01T22:26:13.401Z,33.90
2019-04-01T22:28:40.856Z,34.00
2019-04-01T22:31:07.007Z,34.00
2019-04-01T22:33:33.173Z,33.90
2019-04-01T22:35:59.329Z,33.90
2019-04-01T22:38:25.598Z,33.90
2019-04-01T22:40:51.669Z,33.90
2019-04-01T22:43:17.833Z,33.90
2019-04-01T22:45:43.998Z,33.90
2019-04-01T22:48:10.145Z,33.90
2019-04-01T22:50:36.297Z,34.00
2019-04-01T22:53:04.267Z,33.70
2019-04-01T22:55:28.719Z,34.00
2019-04-01T22:57:54.824Z,33.80
2019-04-01T23:00:21.001Z,33.80
2019-04-01T23:02:47.146Z,33.70
2019-04-01T23:05:13.313Z,33.70
2019-04-01T23:07:39.462Z,33.80
2019-04-01T23:10:06.398Z,33.70
2019-04-01T23:12:32.562Z,33.70
2019-04-01T23:14:58.730Z,33.70
2019-04-01T23:17:24.882Z,33.80
2019-04-01T23:19:51.050Z,33.90
2019-04-01T23:22:17.205Z,33.90
2019-04-01T23:24:43.377Z,34.00
2019-04-01T23:27:09.525Z,33.90
2019-04-01T23:29:35.685Z,33.90
2019-04-01T23:32:01.835Z,34.00
2019-04-01T23:34:27.989Z,34.00
2019-04-01T23:36:54.137Z,33.90
2019-04-01T23:39:22.209Z,33.90
2019-04-01T23:41:48.361Z,34.00
2019-04-01T23:44:14.518Z,33.90
2019-04-01T23:46:41.432Z,34.00
2019-04-01T23:49:07.583Z,33.90
2019-04-01T23:51:33.730Z,34.10
2019-04-01T23:53:59.880Z,34.10
2019-04-01T23:56:27.199Z,33.90
2019-04-01T23:58:52.236Z,33.90
